createdAt,value
2022-08-26T00:01:13.446Z,39.88
2022-08-26T00:04:35.445Z,41.03
2022-08-26T00:07:56.490Z,41.50
2022-08-26T00:11:26.591Z,40.67
2022-08-26T00:14:47.456Z,42.80
2022-08-26T00:18:21.913Z,35.30
2022-08-26T00:21:43.442Z,41.08
2022-08-26T00:25:04.455Z,35.90
2022-08-26T00:28:25.433Z,35.85
2022-08-26T00:31:46.482Z,46.55
2022-08-26T00:35:07.441Z,37.53
2022-08-26T00:38:29.454Z,32.85
2022-08-26T00:41:53.435Z,36.20
2022-08-26T00:45:15.457Z,32.85
2022-08-26T00:48:39.435Z,35.72
2022-08-26T00:52:09.830Z,39.50
2022-08-26T00:55:43.474Z,37.50
2022-08-26T00:59:04.449Z,37.63
2022-08-26T01:02:25.505Z,42.67
2022-08-26T01:05:46.476Z,41.03
2022-08-26T01:09:07.462Z,47.58
2022-08-26T01:12:28.463Z,46.63
2022-08-26T01:15:56.586Z,39.75
2022-08-26T01:19:31.470Z,31.63
2022-08-26T01:23:10.479Z,40.55
2022-08-26T01:26:36.464Z,35.88
2022-08-26T01:30:00.483Z,41.35
2022-08-26T01:33:26.473Z,36.42
2022-08-26T01:36:51.332Z,37.17
2022-08-26T01:40:12.506Z,47.75
2022-08-26T01:43:40.470Z,43.17
2022-08-26T01:47:05.149Z,34.63
2022-08-26T01:50:32.469Z,35.88
2022-08-26T01:53:54.457Z,39.28
2022-08-26T01:57:16.483Z,39.28
2022-08-26T02:00:39.485Z,38.42
2022-08-26T02:04:33.553Z,37.72
2022-08-26T02:07:54.499Z,43.85
2022-08-26T02:11:15.493Z,40.85
2022-08-26T02:14:44.017Z,38.28
2022-08-26T02:18:05.478Z,43.58
2022-08-26T02:21:26.482Z,45.22
2022-08-26T02:25:01.486Z,44.03
2022-08-26T02:28:26.705Z,37.65
2022-08-26T02:31:47.507Z,40.08
2022-08-26T02:35:09.496Z,38.70
2022-08-26T02:38:30.505Z,49.92
2022-08-26T02:41:51.487Z,38.40
2022-08-26T02:45:12.508Z,47.13
2022-08-26T02:48:34.488Z,38.42
2022-08-26T02:51:57.482Z,42.63
2022-08-26T02:55:19.499Z,49.55
2022-08-26T02:58:40.488Z,45.97
2022-08-26T03:02:02.576Z,42.15
2022-08-26T03:05:24.469Z,44.42
2022-08-26T03:08:45.510Z,43.22
2022-08-26T03:12:06.502Z,43.53
2022-08-26T03:15:31.538Z,53.78
2022-08-26T03:18:54.519Z,47.00
2022-08-26T03:22:15.543Z,41.95
2022-08-26T03:25:37.552Z,38.45
2022-08-26T03:29:16.610Z,41.38
2022-08-26T03:32:37.520Z,43.38
2022-08-26T03:35:59.500Z,45.25
2022-08-26T03:39:20.513Z,35.05
2022-08-26T03:42:44.455Z,36.70
2022-08-26T03:46:06.572Z,41.42
2022-08-26T03:49:29.016Z,43.63
2022-08-26T03:52:49.523Z,43.15
2022-08-26T03:56:10.501Z,35.95
2022-08-26T03:59:31.523Z,62.05
2022-08-26T04:02:53.368Z,42.30
2022-08-26T04:06:14.520Z,39.63
2022-08-26T04:09:37.516Z,30.98
2022-08-26T04:12:58.815Z,36.92
2022-08-26T04:16:19.538Z,46.42
2022-08-26T04:19:40.532Z,40.42
2022-08-26T04:23:01.577Z,36.55
2022-08-26T04:26:22.521Z,39.50
2022-08-26T04:29:45.522Z,37.80
2022-08-26T04:33:13.175Z,36.33
2022-08-26T04:36:34.513Z,40.08
2022-08-26T04:39:56.572Z,35.80
2022-08-26T04:43:18.505Z,41.63
2022-08-26T04:46:39.910Z,40.80
2022-08-26T04:50:08.541Z,36.50
2022-08-26T04:53:37.585Z,41.00
2022-08-26T04:57:00.551Z,31.73
2022-08-26T05:00:23.528Z,38.08
2022-08-26T05:03:46.585Z,34.65
2022-08-26T05:07:07.543Z,41.00
2022-08-26T05:10:28.575Z,38.33
2022-08-26T05:13:49.539Z,38.08
2022-08-26T05:17:10.551Z,38.00
2022-08-26T05:20:35.541Z,36.58
2022-08-26T05:23:57.558Z,34.83
2022-08-26T05:27:18.534Z,38.03
2022-08-26T05:30:39.546Z,35.50
2022-08-26T05:34:00.546Z,33.63
2022-08-26T05:37:25.581Z,33.40
2022-08-26T05:40:53.112Z,35.40
2022-08-26T05:44:14.560Z,44.05
2022-08-26T05:47:35.531Z,33.13
2022-08-26T05:51:02.565Z,34.10
2022-08-26T05:54:23.559Z,34.22
2022-08-26T05:57:44.566Z,29.58
2022-08-26T06:01:29.642Z,31.40
2022-08-26T06:04:50.556Z,30.95
2022-08-26T06:08:20.572Z,26.23
2022-08-26T06:11:43.555Z,24.55
2022-08-26T06:15:04.565Z,26.27
2022-08-26T06:18:26.578Z,25.15
2022-08-26T06:21:54.184Z,27.95
2022-08-26T06:25:33.551Z,26.33
2022-08-26T06:28:54.562Z,32.08
2022-08-26T06:32:16.558Z,27.67
2022-08-26T06:35:37.573Z,36.20
2022-08-26T06:38:59.564Z,29.98
2022-08-26T06:42:20.578Z,22.75
2022-08-26T06:45:41.573Z,23.02
2022-08-26T06:49:02.575Z,22.60
2022-08-26T06:52:24.624Z,38.92
2022-08-26T06:55:45.583Z,32.67
2022-08-26T06:59:07.709Z,26.88
2022-08-26T07:02:28.748Z,25.75
2022-08-26T07:05:49.560Z,30.83
2022-08-26T07:09:17.589Z,29.20
2022-08-26T07:12:38.556Z,24.48
2022-08-26T07:16:03.037Z,23.77
2022-08-26T07:19:30.316Z,23.85
2022-08-26T07:22:51.597Z,17.27
2022-08-26T07:26:12.593Z,11.20
2022-08-26T07:29:54.587Z,10.13
2022-08-26T07:33:15.599Z,10.05
2022-08-26T07:36:37.598Z,17.98
2022-08-26T07:39:58.687Z,14.55
2022-08-26T07:43:22.605Z,22.50
2022-08-26T07:46:44.594Z,16.50
2022-08-26T07:50:13.591Z,19.67
2022-08-26T07:53:35.616Z,11.95
2022-08-26T07:56:56.617Z,11.95
2022-08-26T08:00:20.649Z,15.02
2022-08-26T08:03:41.590Z,16.52
2022-08-26T08:07:02.632Z,26.20
2022-08-26T08:10:25.656Z,25.52
2022-08-26T08:13:47.607Z,13.93
2022-08-26T08:17:09.718Z,13.75
2022-08-26T08:20:30.621Z,13.85
2022-08-26T08:23:51.637Z,15.43
2022-08-26T08:27:13.640Z,11.82
2022-08-26T08:30:35.630Z,15.73
2022-08-26T08:33:56.601Z,13.05
2022-08-26T08:37:19.587Z,10.85
2022-08-26T08:40:41.610Z,15.15
2022-08-26T08:44:03.598Z,14.50
2022-08-26T08:48:00.614Z,11.48
2022-08-26T08:51:52.636Z,17.20
2022-08-26T08:55:18.128Z,10.00
2022-08-26T08:59:03.629Z,8.25
2022-08-26T09:02:56.604Z,11.23
2022-08-26T09:06:25.630Z,10.40
2022-08-26T09:09:53.610Z,8.57
2022-08-26T09:13:19.600Z,10.15
2022-08-26T09:17:00.692Z,12.43
2022-08-26T09:20:46.638Z,10.75
2022-08-26T09:24:11.064Z,11.45
2022-08-26T09:27:53.621Z,12.93
2022-08-26T09:31:42.630Z,12.57
2022-08-26T09:35:13.616Z,13.82
2022-08-26T09:38:40.628Z,16.88
2022-08-26T09:42:34.635Z,10.57
2022-08-26T09:46:02.707Z,13.13
2022-08-26T09:49:38.754Z,11.88
2022-08-26T09:52:59.628Z,12.10
2022-08-26T09:56:59.652Z,14.30
2022-08-26T10:00:38.718Z,10.68
2022-08-26T10:03:59.822Z,14.50
2022-08-26T10:07:20.640Z,12.48
2022-08-26T10:10:53.154Z,8.88
2022-08-26T10:14:23.684Z,11.10
2022-08-26T10:17:49.850Z,8.73
2022-08-26T10:21:31.691Z,9.48
2022-08-26T10:24:58.646Z,12.90
2022-08-26T10:28:35.660Z,8.18
2022-08-26T10:32:09.685Z,9.32
2022-08-26T10:35:34.668Z,11.15
2022-08-26T10:38:55.692Z,8.02
2022-08-26T10:42:21.706Z,11.43
2022-08-26T10:45:45.712Z,10.13
2022-08-26T10:49:15.685Z,11.70
2022-08-26T10:52:57.665Z,9.48
2022-08-26T10:56:20.663Z,8.75
2022-08-26T10:59:57.660Z,8.60
2022-08-26T11:03:39.675Z,7.63
2022-08-26T11:07:00.657Z,8.00
2022-08-26T11:10:25.717Z,11.15
2022-08-26T11:14:12.698Z,8.27
2022-08-26T11:18:00.168Z,8.50
2022-08-26T11:22:00.695Z,8.32
2022-08-26T11:25:29.712Z,8.75
2022-08-26T11:29:00.666Z,10.02
2022-08-26T11:32:48.718Z,7.90
2022-08-26T11:36:12.401Z,10.60
2022-08-26T11:39:43.269Z,7.35
2022-08-26T11:43:11.670Z,6.65
2022-08-26T11:46:37.662Z,12.15
2022-08-26T11:50:08.105Z,8.35
2022-08-26T11:53:32.684Z,7.50
2022-08-26T11:56:55.685Z,6.97
2022-08-26T12:00:22.262Z,7.50
2022-08-26T12:03:52.832Z,13.00
2022-08-26T12:07:15.676Z,8.77
2022-08-26T12:10:44.671Z,7.57
2022-08-26T12:14:15.760Z,8.02
2022-08-26T12:17:40.851Z,7.28
2022-08-26T12:21:02.690Z,7.65
2022-08-26T12:24:23.681Z,9.73
2022-08-26T12:27:53.754Z,10.73
2022-08-26T12:31:19.716Z,9.23
2022-08-26T12:34:40.753Z,12.10
2022-08-26T12:38:04.721Z,8.75
2022-08-26T12:41:25.775Z,11.90
2022-08-26T12:44:53.388Z,15.35
2022-08-26T12:48:21.759Z,7.68
2022-08-26T12:51:48.785Z,13.48
2022-08-26T12:55:14.727Z,7.18
2022-08-26T12:58:39.754Z,10.18
2022-08-26T13:02:00.796Z,8.75
2022-08-26T13:05:21.747Z,11.15
2022-08-26T13:08:43.734Z,10.48
2022-08-26T13:12:04.752Z,13.77
2022-08-26T13:15:25.737Z,8.80
2022-08-26T13:18:46.783Z,9.30
2022-08-26T13:22:11.756Z,8.80
2022-08-26T13:25:32.745Z,7.03
2022-08-26T13:29:01.464Z,7.00
2022-08-26T13:32:27.528Z,7.70
2022-08-26T13:35:41.746Z,12.93
2022-08-26T13:39:02.737Z,12.55
2022-08-26T13:42:23.739Z,8.73
2022-08-26T13:45:37.740Z,9.23
2022-08-26T13:48:59.780Z,9.63
2022-08-26T13:52:30.168Z,12.00
2022-08-26T13:55:51.749Z,10.10
2022-08-26T13:59:13.783Z,8.80
2022-08-26T14:02:34.733Z,8.45
2022-08-26T14:05:55.750Z,7.75
2022-08-26T14:09:16.733Z,8.52
2022-08-26T14:12:37.756Z,6.72
2022-08-26T14:15:58.807Z,9.98
2022-08-26T14:19:21.755Z,6.80
2022-08-26T14:23:03.577Z,7.38
2022-08-26T14:26:29.164Z,8.38
2022-08-26T14:29:50.755Z,7.00
2022-08-26T14:33:12.755Z,9.30
2022-08-26T14:36:38.787Z,10.32
2022-08-26T14:43:22.753Z,15.15
2022-08-26T14:46:46.868Z,12.18
2022-08-26T14:50:07.760Z,13.13
2022-08-26T14:53:46.746Z,11.10
2022-08-26T14:57:17.764Z,13.38
2022-08-26T15:00:38.759Z,13.40
2022-08-26T15:03:59.783Z,13.57
2022-08-26T15:07:21.771Z,11.75
2022-08-26T15:10:42.763Z,9.05
2022-08-26T15:14:03.784Z,12.00
2022-08-26T15:17:24.802Z,10.38
2022-08-26T15:20:45.745Z,13.23
2022-08-26T15:24:07.774Z,8.02
2022-08-26T15:27:28.779Z,7.65
2022-08-26T15:30:49.904Z,9.98
2022-08-26T15:34:16.029Z,8.80
2022-08-26T15:37:37.846Z,10.70
2022-08-26T15:41:02.473Z,11.95
2022-08-26T15:44:23.776Z,11.38
2022-08-26T15:47:44.787Z,13.57
2022-08-26T15:51:45.250Z,11.02
2022-08-26T15:55:06.785Z,14.48
2022-08-26T15:58:30.763Z,16.23
2022-08-26T16:01:51.864Z,10.45
2022-08-26T16:05:12.794Z,12.50
2022-08-26T16:08:36.442Z,13.13
2022-08-26T16:11:57.809Z,12.40
2022-08-26T16:15:19.833Z,14.30
2022-08-26T16:18:41.781Z,10.48
2022-08-26T16:22:02.798Z,23.33
2022-08-26T16:25:24.805Z,20.20
2022-08-26T16:28:45.792Z,13.90
2022-08-26T16:32:06.803Z,11.93
2022-08-26T16:35:28.797Z,13.20
2022-08-26T16:38:50.823Z,12.20
2022-08-26T16:42:11.789Z,19.05
2022-08-26T16:45:32.778Z,20.05
2022-08-26T16:48:53.810Z,19.35
2022-08-26T16:52:14.815Z,24.70
2022-08-26T16:55:36.799Z,17.80
2022-08-26T16:58:57.828Z,15.27
2022-08-26T17:02:18.837Z,18.77
2022-08-26T17:05:40.821Z,22.17
2022-08-26T17:09:01.847Z,21.52
2022-08-26T17:12:22.813Z,21.65
2022-08-26T17:15:43.886Z,17.60
2022-08-26T17:19:04.822Z,16.73
2022-08-26T17:22:25.799Z,15.82
2022-08-26T17:25:46.819Z,19.77
2022-08-26T17:29:08.776Z,16.50
2022-08-26T17:32:29.774Z,24.98
2022-08-26T17:35:50.769Z,16.20
2022-08-26T17:39:11.790Z,16.25
2022-08-26T17:42:32.763Z,17.00
2022-08-26T17:45:54.813Z,17.92
2022-08-26T17:49:18.759Z,22.27
2022-08-26T17:52:39.761Z,19.88
2022-08-26T17:56:03.758Z,15.95
2022-08-26T17:59:24.766Z,28.15
2022-08-26T18:06:12.819Z,20.52
2022-08-26T18:09:33.771Z,29.50
2022-08-26T18:12:54.814Z,21.02
2022-08-26T18:16:19.826Z,21.45
2022-08-26T18:19:40.786Z,23.33
2022-08-26T18:23:01.795Z,18.17
2022-08-26T18:26:22.805Z,23.70
2022-08-26T18:29:45.347Z,24.98
2022-08-26T18:33:06.844Z,15.60
2022-08-26T18:36:29.765Z,20.08
2022-08-26T18:39:50.857Z,22.98
2022-08-26T18:43:12.781Z,24.00
2022-08-26T18:46:36.907Z,22.25
2022-08-26T18:49:57.794Z,22.08
2022-08-26T18:53:18.796Z,31.90
2022-08-26T18:56:40.789Z,22.45
2022-08-26T18:59:54.782Z,22.10
2022-08-26T19:03:18.762Z,25.40
2022-08-26T19:06:41.802Z,16.15
2022-08-26T19:10:05.325Z,21.55
2022-08-26T19:13:25.787Z,25.35
2022-08-26T19:16:47.904Z,23.92
2022-08-26T19:20:09.830Z,20.70
2022-08-26T19:23:32.658Z,18.85
2022-08-26T19:26:57.659Z,19.90
2022-08-26T19:30:20.816Z,23.52
2022-08-26T19:33:41.810Z,23.77
2022-08-26T19:37:03.850Z,19.40
2022-08-26T19:40:24.904Z,16.60
2022-08-26T19:43:46.264Z,20.42
2022-08-26T19:47:07.846Z,18.75
2022-08-26T19:50:29.816Z,24.17
2022-08-26T19:53:50.832Z,24.50
2022-08-26T19:57:11.826Z,20.20
2022-08-26T20:00:38.805Z,24.90
2022-08-26T20:03:59.811Z,17.00
2022-08-26T20:07:21.812Z,20.88
2022-08-26T20:10:42.821Z,23.58
2022-08-26T20:14:04.793Z,27.10
2022-08-26T20:17:26.813Z,24.40
2022-08-26T20:21:05.890Z,22.20
2022-08-26T20:24:33.923Z,28.17
2022-08-26T20:27:54.886Z,27.00
2022-08-26T20:31:15.866Z,23.65
2022-08-26T20:34:36.869Z,28.60
2022-08-26T20:37:57.886Z,26.67
2022-08-26T20:41:18.936Z,29.50
2022-08-26T20:44:39.873Z,34.83
2022-08-26T20:48:07.897Z,27.38
2022-08-26T20:51:32.899Z,30.30
2022-08-26T20:54:53.889Z,33.97
2022-08-26T20:58:14.881Z,42.50
2022-08-26T21:01:42.300Z,35.30
2022-08-26T21:05:03.948Z,40.47
2022-08-26T21:08:24.899Z,40.92
2022-08-26T21:11:46.865Z,44.80
2022-08-26T21:15:07.921Z,44.65
2022-08-26T21:18:28.887Z,31.92
2022-08-26T21:21:49.891Z,30.92
2022-08-26T21:25:10.877Z,39.90
2022-08-26T21:28:32.890Z,41.53
2022-08-26T21:31:47.101Z,34.22
2022-08-26T21:35:09.885Z,34.50
2022-08-26T21:38:30.907Z,33.65
2022-08-26T21:41:52.889Z,36.05
2022-08-26T21:45:32.937Z,33.17
2022-08-26T21:49:02.920Z,26.05
2022-08-26T21:52:24.907Z,29.20
2022-08-26T21:55:48.894Z,29.65
2022-08-26T21:59:09.916Z,32.72
2022-08-26T22:02:38.963Z,44.90
2022-08-26T22:06:00.912Z,32.75
2022-08-26T22:09:21.884Z,33.28
2022-08-26T22:12:42.948Z,24.83
2022-08-26T22:16:03.963Z,28.60
2022-08-26T22:19:24.925Z,31.25
2022-08-26T22:22:38.900Z,31.42
2022-08-26T22:25:59.907Z,35.22
2022-08-26T22:29:20.905Z,37.53
2022-08-26T22:32:41.937Z,38.58
2022-08-26T22:36:04.902Z,35.92
2022-08-26T22:39:26.922Z,35.45
2022-08-26T22:42:55.601Z,30.75
2022-08-26T22:46:19.921Z,36.47
2022-08-26T22:49:40.908Z,27.38
2022-08-26T22:53:01.912Z,38.03
2022-08-26T22:56:24.909Z,30.70
2022-08-26T22:59:45.904Z,24.23
2022-08-26T23:03:07.039Z,33.28
2022-08-26T23:06:27.950Z,27.42
2022-08-26T23:09:48.942Z,35.25
2022-08-26T23:13:10.933Z,27.30
2022-08-26T23:16:53.992Z,28.60
2022-08-26T23:20:17.929Z,25.75
2022-08-26T23:23:38.942Z,31.45
2022-08-26T23:26:59.950Z,30.95
2022-08-26T23:30:24.950Z,27.45
2022-08-26T23:34:03.961Z,40.97
2022-08-26T23:37:26.464Z,31.17
2022-08-26T23:40:48.945Z,29.35
2022-08-26T23:44:11.956Z,27.30
2022-08-26T23:47:32.937Z,33.28
2022-08-26T23:51:11.950Z,38.08
2022-08-26T23:54:25.951Z,30.83
2022-08-26T23:57:47.952Z,26.48
